createdAt,value
2018-12-02T00:00:30.350Z,1.50
2018-12-02T00:02:59.507Z,1.50
2018-12-02T00:05:28.429Z,1.77
2018-12-02T00:07:56.872Z,1.77
2018-12-02T00:10:25.813Z,1.50
2018-12-02T00:12:54.232Z,1.60
2018-12-02T00:15:26.709Z,1.50
2018-12-02T00:17:57.362Z,1.43
2018-12-02T00:20:25.820Z,0.90
2018-12-02T00:22:54.444Z,1.43
2018-12-02T00:25:22.887Z,1.30
2018-12-02T00:27:54.483Z,1.63
2018-12-02T00:30:28.000Z,1.50
2018-12-02T00:32:56.469Z,1.70
2018-12-02T00:35:24.951Z,1.20
2018-12-02T00:37:55.497Z,1.00
2018-12-02T00:40:24.172Z,1.07
2018-12-02T00:42:55.552Z,1.37
2018-12-02T00:45:28.476Z,0.93
2018-12-02T00:47:56.964Z,0.80
2018-12-02T00:50:25.424Z,1.00
2018-12-02T00:52:55.075Z,1.20
2018-12-02T00:55:28.150Z,0.90
2018-12-02T00:57:56.572Z,1.30
2018-12-02T01:00:25.029Z,1.00
2018-12-02T01:02:53.497Z,0.80
2018-12-02T01:05:22.704Z,0.97
2018-12-02T01:07:51.193Z,0.70
2018-12-02T01:10:20.676Z,0.70
2018-12-02T01:12:50.164Z,0.80
2018-12-02T01:15:19.783Z,0.90
2018-12-02T01:17:48.245Z,1.00
2018-12-02T01:20:20.541Z,0.90
2018-12-02T01:22:48.997Z,0.90
2018-12-02T01:25:17.485Z,0.80
2018-12-02T01:27:46.495Z,0.80
2018-12-02T01:30:16.104Z,0.70
2018-12-02T01:32:44.550Z,0.70
2018-12-02T01:35:13.887Z,0.80
2018-12-02T01:37:42.397Z,0.80
2018-12-02T01:40:17.224Z,0.90
2018-12-02T01:42:45.692Z,0.90
2018-12-02T01:45:17.017Z,0.70
2018-12-02T01:47:45.466Z,0.70
2018-12-02T01:50:14.994Z,1.00
2018-12-02T01:52:44.395Z,0.80
2018-12-02T01:55:12.849Z,1.10
2018-12-02T01:57:41.299Z,1.13
2018-12-02T02:00:28.419Z,1.10
2018-12-02T02:02:57.217Z,1.03
2018-12-02T02:05:26.562Z,1.53
2018-12-02T02:07:55.018Z,0.90
2018-12-02T02:10:28.455Z,0.97
2018-12-02T02:12:56.921Z,1.07
2018-12-02T02:15:25.621Z,1.10
2018-12-02T02:17:54.087Z,1.10
2018-12-02T02:20:24.421Z,1.10
2018-12-02T02:22:53.032Z,1.53
2018-12-02T02:25:24.650Z,0.80
2018-12-02T02:27:56.440Z,1.00
2018-12-02T02:30:27.942Z,1.00
2018-12-02T02:32:56.489Z,0.90
2018-12-02T02:35:24.944Z,0.97
2018-12-02T02:37:54.455Z,0.80
2018-12-02T02:40:23.881Z,0.70
2018-12-02T02:42:52.342Z,0.90
2018-12-02T02:45:20.795Z,0.67
2018-12-02T02:47:49.187Z,0.80
2018-12-02T02:50:18.628Z,0.60
2018-12-02T02:52:50.189Z,0.70
2018-12-02T02:55:18.701Z,0.80
2018-12-02T02:57:47.117Z,0.60
2018-12-02T03:00:17.625Z,0.80
2018-12-02T03:02:46.190Z,0.60
2018-12-02T03:05:15.245Z,0.70
2018-12-02T03:07:43.720Z,0.70
2018-12-02T03:10:13.345Z,0.90
2018-12-02T03:12:42.043Z,1.13
2018-12-02T03:15:11.939Z,0.90
2018-12-02T03:17:40.462Z,0.90
2018-12-02T03:20:10.968Z,0.90
2018-12-02T03:22:39.631Z,0.90
2018-12-02T03:25:09.698Z,0.97
2018-12-02T03:27:38.185Z,1.20
2018-12-02T03:30:14.007Z,1.00
2018-12-02T03:32:42.556Z,1.00
2018-12-02T03:35:13.026Z,0.83
2018-12-02T03:37:41.488Z,1.30
2018-12-02T03:40:15.060Z,0.80
2018-12-02T03:42:43.512Z,1.30
2018-12-02T03:45:12.996Z,0.97
2018-12-02T03:47:41.463Z,1.23
2018-12-02T03:50:25.559Z,1.23
2018-12-02T03:52:54.019Z,0.90
2018-12-02T03:55:22.482Z,1.40
2018-12-02T03:57:50.940Z,1.30
2018-12-02T04:00:22.341Z,1.73
2018-12-02T04:02:51.412Z,1.10
2018-12-02T04:05:20.755Z,1.30
2018-12-02T04:07:49.674Z,1.40
2018-12-02T04:10:19.580Z,1.30
2018-12-02T04:12:49.635Z,2.03
2018-12-02T04:15:20.210Z,1.10
2018-12-02T04:17:48.677Z,0.90
2018-12-02T04:20:18.868Z,1.20
2018-12-02T04:22:49.212Z,1.00
2018-12-02T04:25:19.721Z,1.13
2018-12-02T04:27:48.234Z,1.00
2018-12-02T04:30:19.569Z,1.07
2018-12-02T04:32:50.010Z,1.47
2018-12-02T04:35:19.541Z,1.10
2018-12-02T04:37:47.947Z,0.90
2018-12-02T04:40:16.409Z,1.23
2018-12-02T04:42:44.819Z,1.10
2018-12-02T04:45:16.189Z,1.00
2018-12-02T04:47:44.758Z,1.13
2018-12-02T04:50:18.274Z,1.10
2018-12-02T04:52:46.746Z,1.50
2018-12-02T04:55:15.328Z,1.40
2018-12-02T04:57:43.761Z,1.20
2018-12-02T05:00:19.614Z,1.30
2018-12-02T05:02:49.228Z,1.47
2018-12-02T05:05:19.777Z,1.20
2018-12-02T05:07:48.205Z,1.20
2018-12-02T05:10:17.637Z,1.10
2018-12-02T05:12:46.088Z,1.53
2018-12-02T05:15:16.345Z,1.27
2018-12-02T05:17:44.800Z,1.20
2018-12-02T05:20:15.179Z,1.50
2018-12-02T05:22:43.593Z,1.60
2018-12-02T05:25:17.405Z,1.73
2018-12-02T05:27:42.868Z,1.20
2018-12-02T05:30:13.512Z,1.40
2018-12-02T05:32:41.983Z,1.47
2018-12-02T05:35:11.454Z,1.00
2018-12-02T05:37:39.915Z,1.30
2018-12-02T05:40:10.294Z,1.80
2018-12-02T05:42:38.730Z,1.23
2018-12-02T05:45:09.562Z,1.40
2018-12-02T05:47:38.000Z,1.00
2018-12-02T05:50:13.813Z,1.40
2018-12-02T05:52:42.255Z,1.50
2018-12-02T05:55:12.312Z,1.30
2018-12-02T05:57:40.784Z,1.47
2018-12-02T06:00:14.727Z,1.30
2018-12-02T06:02:43.147Z,1.23
2018-12-02T06:05:12.241Z,1.50
2018-12-02T06:07:40.702Z,1.43
2018-12-02T06:10:12.475Z,1.03
2018-12-02T06:12:40.928Z,1.20
2018-12-02T06:15:10.810Z,1.43
2018-12-02T06:17:39.708Z,1.20
2018-12-02T06:20:12.342Z,0.90
2018-12-02T06:22:40.787Z,1.00
2018-12-02T06:25:10.009Z,2.17
2018-12-02T06:27:38.551Z,1.50
2018-12-02T06:30:22.754Z,1.00
2018-12-02T06:32:52.564Z,1.00
2018-12-02T06:35:21.007Z,1.20
2018-12-02T06:37:50.046Z,1.00
2018-12-02T06:40:20.563Z,1.00
2018-12-02T06:42:49.428Z,1.50
2018-12-02T06:45:17.867Z,1.20
2018-12-02T06:47:46.337Z,1.00
2018-12-02T06:50:22.360Z,1.20
2018-12-02T06:52:51.037Z,1.50
2018-12-02T06:55:33.860Z,0.80
2018-12-02T06:58:17.136Z,0.97
2018-12-02T07:03:05.748Z,0.90
2018-12-02T07:05:37.249Z,1.20
2018-12-02T07:08:06.059Z,0.97
2018-12-02T07:10:34.468Z,1.10
2018-12-02T07:13:02.923Z,1.10
2018-12-02T07:15:31.369Z,1.10
2018-12-02T07:18:02.251Z,1.03
2018-12-02T07:20:33.226Z,1.10
2018-12-02T07:23:07.182Z,1.20
2018-12-02T07:25:40.644Z,1.13
2018-12-02T07:28:09.084Z,1.60
2018-12-02T07:30:37.521Z,0.90
2018-12-02T07:33:06.614Z,1.20
2018-12-02T07:35:35.094Z,0.90
2018-12-02T07:38:08.495Z,0.70
2018-12-02T07:40:38.324Z,1.10
2018-12-02T07:43:08.221Z,1.00
2018-12-02T07:45:36.644Z,0.90
2018-12-02T07:48:05.406Z,0.93
2018-12-02T07:50:33.833Z,1.17
2018-12-02T07:53:02.273Z,0.97
2018-12-02T07:55:30.730Z,1.30
2018-12-02T07:57:59.150Z,0.93
2018-12-02T08:00:27.584Z,0.90
2018-12-02T08:02:56.017Z,1.00
2018-12-02T08:05:24.469Z,1.33
2018-12-02T08:07:53.035Z,1.10
2018-12-02T08:10:21.522Z,1.20
2018-12-02T08:12:49.994Z,1.77
2018-12-02T08:15:19.438Z,1.33
2018-12-02T08:17:47.868Z,1.00
2018-12-02T08:20:17.338Z,1.50
2018-12-02T08:22:51.317Z,1.67
2018-12-02T08:25:16.796Z,1.27
2018-12-02T08:27:45.227Z,1.00
2018-12-02T08:30:28.246Z,1.20
2018-12-02T08:32:56.722Z,1.80
2018-12-02T08:35:27.595Z,1.27
2018-12-02T08:37:59.435Z,1.00
2018-12-02T08:40:27.860Z,1.10
2018-12-02T08:42:56.281Z,1.30
2018-12-02T08:45:24.756Z,0.80
2018-12-02T08:47:53.180Z,1.13
2018-12-02T08:50:21.723Z,0.60
2018-12-02T08:52:51.232Z,0.80
2018-12-02T08:55:20.448Z,0.67
2018-12-02T08:57:50.259Z,0.80
2018-12-02T09:00:19.685Z,1.07
2018-12-02T09:02:56.184Z,0.80
2018-12-02T09:05:24.716Z,0.63
2018-12-02T09:07:54.327Z,1.07
2018-12-02T09:10:24.156Z,0.70
2018-12-02T09:12:54.028Z,0.70
2018-12-02T09:15:22.456Z,2.23
2018-12-02T09:17:50.975Z,0.67
2018-12-02T09:20:24.823Z,0.80
2018-12-02T09:22:53.248Z,0.70
2018-12-02T09:25:21.713Z,0.70
2018-12-02T09:27:56.793Z,1.67
2018-12-02T09:30:26.571Z,0.80
2018-12-02T09:32:55.170Z,0.70
2018-12-02T09:35:23.632Z,0.90
2018-12-02T09:37:52.072Z,0.90
2018-12-02T09:40:20.485Z,0.80
2018-12-02T09:42:50.276Z,1.27
2018-12-02T09:45:26.515Z,0.80
2018-12-02T09:47:56.393Z,1.00
2018-12-02T09:50:24.821Z,0.87
2018-12-02T09:52:53.277Z,0.80
2018-12-02T09:55:24.105Z,0.80
2018-12-02T09:57:53.301Z,1.00
2018-12-02T10:00:22.553Z,0.90
2018-12-02T10:02:50.981Z,0.80
2018-12-02T10:05:19.437Z,0.80
2018-12-02T10:07:47.891Z,0.77
2018-12-02T10:10:22.547Z,0.87
2018-12-02T10:12:51.057Z,1.20
2018-12-02T10:15:19.495Z,0.90
2018-12-02T10:17:47.944Z,0.93
2018-12-02T10:20:16.755Z,1.07
2018-12-02T10:22:46.414Z,0.90
2018-12-02T10:25:17.152Z,1.30
2018-12-02T10:27:45.859Z,1.20
2018-12-02T10:30:18.493Z,1.20
2018-12-02T10:32:47.077Z,1.10
2018-12-02T10:35:15.506Z,1.17
2018-12-02T10:37:43.963Z,1.40
2018-12-02T10:40:20.034Z,1.60
2018-12-02T10:42:48.544Z,1.83
2018-12-02T10:45:19.951Z,1.30
2018-12-02T10:47:48.987Z,1.73
2018-12-02T10:50:18.814Z,1.67
2018-12-02T10:52:47.293Z,1.70
2018-12-02T10:55:27.727Z,1.50
2018-12-02T10:57:56.168Z,1.23
2018-12-02T11:00:29.936Z,1.40
2018-12-02T11:02:58.403Z,1.30
2018-12-02T11:05:26.871Z,1.53
2018-12-02T11:07:55.334Z,1.30
2018-12-02T11:10:23.759Z,1.97
2018-12-02T11:12:52.195Z,1.83
2018-12-02T11:15:20.646Z,1.60
2018-12-02T11:17:49.071Z,1.20
2018-12-02T11:20:17.695Z,1.63
2018-12-02T11:22:46.113Z,2.20
2018-12-02T11:25:15.158Z,2.07
2018-12-02T11:27:43.834Z,2.17
2018-12-02T11:30:16.947Z,2.00
2018-12-02T11:32:46.495Z,2.07
2018-12-02T11:35:16.030Z,1.70
2018-12-02T11:37:44.697Z,1.13
2018-12-02T11:40:18.608Z,1.20
2018-12-02T11:42:48.508Z,0.80
2018-12-02T11:45:17.022Z,1.30
2018-12-02T11:47:47.534Z,1.00
2018-12-02T11:50:19.829Z,0.80
2018-12-02T11:52:48.489Z,1.10
2018-12-02T11:55:18.910Z,1.30
2018-12-02T11:57:47.388Z,1.50
2018-12-02T12:00:23.164Z,1.37
2018-12-02T12:02:51.695Z,1.07
2018-12-02T12:05:20.155Z,1.40
2018-12-02T12:07:49.515Z,1.20
2018-12-02T12:10:27.648Z,1.10
2018-12-02T12:12:58.990Z,1.30
2018-12-02T12:15:28.475Z,1.23
2018-12-02T12:17:57.627Z,1.97
2018-12-02T12:20:32.155Z,1.30
2018-12-02T12:23:00.615Z,1.43
2018-12-02T12:25:29.220Z,1.10
2018-12-02T12:27:58.284Z,1.40
2018-12-02T12:30:28.864Z,1.10
2018-12-02T12:32:57.273Z,1.33
2018-12-02T12:35:25.905Z,1.50
2018-12-02T12:37:54.441Z,1.40
2018-12-02T12:40:24.376Z,1.40
2018-12-02T12:43:26.672Z,1.70
2018-12-02T12:45:55.144Z,1.40
2018-12-02T12:48:23.572Z,1.90
2018-12-02T12:50:52.041Z,2.30
2018-12-02T12:53:20.493Z,1.73
2018-12-02T12:55:50.962Z,1.77
2018-12-02T12:58:18.177Z,1.60
2018-12-02T13:00:46.752Z,1.80
2018-12-02T13:03:15.171Z,1.73
2018-12-02T13:05:43.908Z,2.23
2018-12-02T13:08:13.687Z,1.90
2018-12-02T13:10:42.146Z,2.30
2018-12-02T13:13:10.600Z,2.20
2018-12-02T13:15:39.033Z,2.20
2018-12-02T13:18:08.865Z,2.50
2018-12-02T13:20:41.105Z,2.10
2018-12-02T13:23:09.547Z,2.20
2018-12-02T13:25:37.994Z,1.90
2018-12-02T13:28:07.250Z,1.97
2018-12-02T13:30:35.832Z,2.00
2018-12-02T13:33:04.696Z,1.53
2018-12-02T13:35:33.117Z,1.60
2018-12-02T13:38:01.559Z,1.30
2018-12-02T13:40:30.004Z,1.50
2018-12-02T13:43:00.752Z,1.53
2018-12-02T13:45:30.322Z,1.70
2018-12-02T13:47:58.757Z,1.40
2018-12-02T13:50:27.833Z,1.40
2018-12-02T13:52:57.107Z,1.83
2018-12-02T13:55:27.082Z,1.60
2018-12-02T13:57:55.557Z,2.17
2018-12-02T14:00:24.983Z,1.40
2018-12-02T14:02:57.780Z,1.80
2018-12-02T14:05:26.249Z,1.67
2018-12-02T14:07:54.720Z,1.40
2018-12-02T14:10:23.136Z,2.10
2018-12-02T14:12:53.292Z,1.60
2018-12-02T14:15:32.438Z,1.80
2018-12-02T14:18:09.313Z,1.60
2018-12-02T14:20:37.756Z,1.73
2018-12-02T14:23:06.265Z,2.23
2018-12-02T14:25:34.696Z,1.60
2018-12-02T14:28:03.128Z,2.23
2018-12-02T14:30:31.568Z,2.10
2018-12-02T14:32:59.988Z,1.80
2018-12-02T14:35:28.409Z,2.60
2018-12-02T14:37:56.885Z,2.20
2018-12-02T14:40:25.324Z,2.03
2018-12-02T14:42:53.767Z,2.60
2018-12-02T14:45:22.224Z,2.90
2018-12-02T14:47:50.691Z,2.53
2018-12-02T14:50:19.109Z,2.80
2018-12-02T14:52:48.525Z,2.77
2018-12-02T14:55:18.260Z,3.03
2018-12-02T14:57:46.672Z,2.40
2018-12-02T15:00:16.140Z,2.90
2018-12-02T15:02:44.616Z,2.83
2018-12-02T15:05:13.846Z,2.60
2018-12-02T15:07:44.283Z,2.50
2018-12-02T15:10:15.986Z,2.60
2018-12-02T15:12:45.271Z,2.70
2018-12-02T15:15:15.591Z,2.70
2018-12-02T15:17:44.991Z,2.30
2018-12-02T15:20:14.812Z,2.60
2018-12-02T15:22:43.278Z,2.87
2018-12-02T15:25:12.712Z,2.80
2018-12-02T15:27:41.405Z,3.03
2018-12-02T15:30:13.962Z,2.67
2018-12-02T15:32:50.163Z,3.00
2018-12-02T15:35:19.200Z,3.63
2018-12-02T15:37:47.771Z,2.83
2018-12-02T15:40:17.207Z,2.83
2018-12-02T15:42:51.107Z,4.07
2018-12-02T15:45:20.273Z,3.27
2018-12-02T15:47:48.737Z,3.03
2018-12-02T15:50:20.188Z,3.10
2018-12-02T15:52:48.664Z,2.50
2018-12-02T15:55:22.017Z,2.00
2018-12-02T15:57:50.660Z,2.33
2018-12-02T16:00:23.700Z,2.00
2018-12-02T16:02:52.205Z,2.00
2018-12-02T16:05:27.413Z,2.27
2018-12-02T16:07:55.838Z,2.13
2018-12-02T16:10:24.264Z,2.00
2018-12-02T16:12:53.498Z,2.10
2018-12-02T16:15:25.433Z,1.67
2018-12-02T16:17:53.945Z,1.73
2018-12-02T16:20:25.945Z,2.60
2018-12-02T16:22:54.396Z,3.60
2018-12-02T16:25:22.978Z,2.20
2018-12-02T16:27:51.525Z,2.37
2018-12-02T16:30:20.727Z,2.53
2018-12-02T16:32:54.104Z,2.60
2018-12-02T16:35:23.683Z,2.50
2018-12-02T16:37:53.400Z,3.67
2018-12-02T16:40:22.900Z,2.97
2018-12-02T16:42:52.372Z,3.33
2018-12-02T16:45:20.836Z,3.93
2018-12-02T16:47:50.988Z,4.07
2018-12-02T16:50:24.081Z,3.00
2018-12-02T16:52:53.698Z,3.17
2018-12-02T16:55:23.908Z,3.10
2018-12-02T16:58:32.900Z,2.77
2018-12-02T17:01:14.827Z,3.27
2018-12-02T17:03:43.263Z,3.63
2018-12-02T17:06:11.744Z,3.80
2018-12-02T17:08:40.192Z,4.50
2018-12-02T17:11:08.651Z,3.80
2018-12-02T17:13:37.109Z,3.60
2018-12-02T17:16:06.253Z,3.40
2018-12-02T17:18:34.673Z,3.70
2018-12-02T17:21:03.146Z,3.70
2018-12-02T17:23:31.576Z,4.10
2018-12-02T17:26:00.002Z,4.00
2018-12-02T17:28:28.962Z,3.83
2018-12-02T17:30:58.715Z,3.90
2018-12-02T17:33:27.145Z,4.00
2018-12-02T17:35:55.606Z,4.87
2018-12-02T17:38:25.318Z,4.20
2018-12-02T17:40:55.209Z,4.37
2018-12-02T17:43:23.668Z,5.10
2018-12-02T17:45:52.145Z,6.00
2018-12-02T17:48:20.606Z,5.40
2018-12-02T17:50:49.032Z,5.67
2018-12-02T17:53:17.452Z,5.77
2018-12-02T17:55:45.883Z,4.93
2018-12-02T17:58:14.484Z,5.87
2018-12-02T18:00:42.954Z,5.33
2018-12-02T18:03:13.966Z,5.47
2018-12-02T18:05:44.426Z,5.00
2018-12-02T18:08:12.904Z,6.27
2018-12-02T18:10:41.387Z,5.67
2018-12-02T18:13:09.836Z,5.77
2018-12-02T18:15:38.251Z,6.73
2018-12-02T18:18:07.442Z,6.53
2018-12-02T18:20:36.782Z,7.80
2018-12-02T18:23:05.312Z,6.80
2018-12-02T18:25:33.720Z,8.13
2018-12-02T18:28:02.171Z,8.27
2018-12-02T18:30:30.834Z,8.27
2018-12-02T18:33:01.389Z,7.87
2018-12-02T18:35:51.011Z,7.30
2018-12-02T18:38:21.067Z,5.80
2018-12-02T18:40:54.849Z,6.57
2018-12-02T18:43:23.296Z,4.87
2018-12-02T18:45:51.727Z,4.60
2018-12-02T18:48:20.153Z,3.90
2018-12-02T18:50:48.581Z,4.13
2018-12-02T18:53:16.987Z,3.07
2018-12-02T18:55:45.419Z,3.17
2018-12-02T18:58:13.903Z,3.03
2018-12-02T19:00:45.226Z,2.70
2018-12-02T19:03:13.922Z,3.20
2018-12-02T19:05:42.448Z,2.40
2018-12-02T19:08:10.877Z,2.67
2018-12-02T19:10:39.313Z,2.87
2018-12-02T19:13:07.786Z,1.90
2018-12-02T19:15:36.226Z,2.93
2018-12-02T19:18:04.915Z,2.40
2018-12-02T19:20:33.345Z,2.53
2018-12-02T19:23:03.579Z,2.33
2018-12-02T19:25:32.031Z,2.23
2018-12-02T19:28:00.453Z,4.03
2018-12-02T19:30:33.034Z,3.03
2018-12-02T19:32:57.440Z,3.37
2018-12-02T19:35:28.350Z,3.13
2018-12-02T19:38:04.380Z,3.30
2018-12-02T19:40:32.775Z,2.77
2018-12-02T19:43:01.211Z,3.03
2018-12-02T19:45:29.683Z,4.20
2018-12-02T19:47:58.103Z,2.87
2018-12-02T19:50:26.560Z,2.67
2018-12-02T19:52:54.993Z,1.93
2018-12-02T19:55:23.449Z,3.23
2018-12-02T19:57:52.235Z,1.80
2018-12-02T20:00:26.213Z,2.57
2018-12-02T20:02:55.307Z,2.23
2018-12-02T20:05:23.812Z,2.10
2018-12-02T20:07:55.788Z,2.70
2018-12-02T20:10:29.291Z,2.40
2018-12-02T20:13:02.079Z,2.70
2018-12-02T20:15:30.605Z,2.30
2018-12-02T20:17:59.011Z,2.60
2018-12-02T20:20:33.048Z,1.93
2018-12-02T20:23:01.468Z,3.17
2018-12-02T20:25:29.939Z,3.20
2018-12-02T20:28:01.026Z,3.00
2018-12-02T20:30:31.153Z,3.80
2018-12-02T20:32:59.612Z,3.07
2018-12-02T20:35:28.058Z,2.70
2018-12-02T20:37:56.492Z,2.80
2018-12-02T20:40:25.776Z,3.10
2018-12-02T20:42:54.331Z,4.73
2018-12-02T20:45:22.777Z,3.67
2018-12-02T20:47:51.198Z,2.70
2018-12-02T20:50:19.777Z,3.10
2018-12-02T20:52:48.926Z,2.43
2018-12-02T20:55:19.738Z,3.07
2018-12-02T20:57:48.941Z,3.00
2018-12-02T21:00:18.708Z,3.20
2018-12-02T21:02:52.027Z,2.97
2018-12-02T21:05:23.808Z,3.70
2018-12-02T21:07:52.352Z,3.80
2018-12-02T21:10:20.808Z,4.07
2018-12-02T21:12:49.285Z,4.73
2018-12-02T21:15:17.788Z,4.67
2018-12-02T21:17:46.385Z,4.67
2018-12-02T21:20:14.924Z,5.70
2018-12-02T21:22:43.407Z,5.10
2018-12-02T21:25:27.497Z,5.17
2018-12-02T21:27:55.949Z,3.70
2018-12-02T21:30:26.923Z,4.10
2018-12-02T21:32:55.394Z,3.90
2018-12-02T21:35:23.832Z,3.67
2018-12-02T21:37:53.931Z,3.33
2018-12-02T21:40:22.360Z,2.53
2018-12-02T21:42:50.888Z,3.10
2018-12-02T21:45:19.367Z,3.27
2018-12-02T21:47:50.256Z,3.10
2018-12-02T21:50:23.054Z,3.30
2018-12-02T21:52:51.575Z,2.83
2018-12-02T21:55:20.040Z,2.67
2018-12-02T21:57:48.512Z,2.77
2018-12-02T22:00:22.865Z,3.67
2018-12-02T22:02:52.401Z,3.77
2018-12-02T22:05:20.964Z,3.03
2018-12-02T22:07:51.142Z,3.47
2018-12-02T22:10:21.847Z,3.47
2018-12-02T22:12:50.322Z,2.93
2018-12-02T22:15:18.775Z,3.50
2018-12-02T22:17:47.577Z,3.30
2018-12-02T22:20:17.014Z,3.17
2018-12-02T22:22:45.521Z,3.50
2018-12-02T22:25:15.362Z,4.03
2018-12-02T22:27:47.955Z,3.70
2018-12-02T22:30:18.616Z,4.00
2018-12-02T22:32:47.014Z,3.90
2018-12-02T22:35:16.194Z,4.37
2018-12-02T22:37:45.559Z,4.07
2018-12-02T22:40:18.250Z,3.90
2018-12-02T22:42:46.691Z,4.43
2018-12-02T22:45:17.356Z,4.03
2018-12-02T22:47:45.827Z,4.40
2018-12-02T22:50:15.428Z,3.90
2018-12-02T22:52:45.143Z,3.57
2018-12-02T22:55:13.614Z,3.00
2018-12-02T22:57:42.020Z,3.47
2018-12-02T23:00:12.930Z,3.77
2018-12-02T23:03:17.122Z,4.20
2018-12-02T23:05:46.713Z,3.70
2018-12-02T23:08:15.147Z,3.80
2018-12-02T23:10:43.618Z,4.17
2018-12-02T23:13:12.104Z,3.90
2018-12-02T23:15:41.892Z,5.23
2018-12-02T23:18:12.527Z,5.47
2018-12-02T23:20:41.013Z,4.30
2018-12-02T23:23:09.443Z,4.67
2018-12-02T23:25:37.884Z,5.13
2018-12-02T23:28:07.115Z,4.60
2018-12-02T23:30:35.580Z,3.73
2018-12-02T23:33:04.025Z,3.37
2018-12-02T23:35:32.499Z,2.47
2018-12-02T23:38:00.927Z,2.13
2018-12-02T23:40:29.357Z,1.20
2018-12-02T23:42:57.803Z,1.80
2018-12-02T23:45:26.247Z,1.60
2018-12-02T23:47:54.778Z,1.20
2018-12-02T23:50:24.107Z,1.37
2018-12-02T23:52:52.807Z,1.30
2018-12-02T23:55:21.980Z,1.40
2018-12-02T23:57:50.477Z,1.47
